sensor_id;sensor_type;location;lat;lon;timestamp;pressure;altitude;pressure_sealevel;temperature;humidity
9538;BME280;4807;48.024;11.726;2022-12-29T00:01:01;94859.69;;;2.99;69.22
9538;BME280;4807;48.024;11.726;2022-12-29T00:04:13;94853.78;;;3.05;68.36
9538;BME280;4807;48.024;11.726;2022-12-29T00:07:22;94849.31;;;2.98;68.77
9538;BME280;4807;48.024;11.726;2022-12-29T00:10:31;94844.19;;;2.96;69.16
9538;BME280;4807;48.024;11.726;2022-12-29T00:13:41;94835.75;;;2.85;69.93
9538;BME280;4807;48.024;11.726;2022-12-29T00:17:08;94833.34;;;2.91;69.31
9538;BME280;4807;48.024;11.726;2022-12-29T00:20:17;94831.50;;;2.84;69.27
9538;BME280;4807;48.024;11.726;2022-12-29T00:23:42;94832.78;;;2.80;69.36
9538;BME280;4807;48.024;11.726;2022-12-29T00:27:12;94835.88;;;2.75;70.35
9538;BME280;4807;48.024;11.726;2022-12-29T00:30:41;94835.13;;;2.57;70.68
9538;BME280;4807;48.024;11.726;2022-12-29T00:34:11;94826.06;;;2.51;70.71
9538;BME280;4807;48.024;11.726;2022-12-29T00:37:39;94821.88;;;2.41;71.21
9538;BME280;4807;48.024;11.726;2022-12-29T00:41:06;94812.88;;;2.43;70.68
9538;BME280;4807;48.024;11.726;2022-12-29T00:44:32;94814.50;;;2.44;71.20
9538;BME280;4807;48.024;11.726;2022-12-29T00:47:42;94810.69;;;2.39;71.06
9538;BME280;4807;48.024;11.726;2022-12-29T00:50:55;94815.75;;;2.32;71.40
9538;BME280;4807;48.024;11.726;2022-12-29T00:54:03;94809.50;;;2.33;71.02
9538;BME280;4807;48.024;11.726;2022-12-29T00:57:12;94810.28;;;2.25;71.05
9538;BME280;4807;48.024;11.726;2022-12-29T01:00:20;94814.75;;;2.33;70.57
9538;BME280;4807;48.024;11.726;2022-12-29T01:03:30;94819.03;;;2.34;70.79
9538;BME280;4807;48.024;11.726;2022-12-29T01:06:41;94810.44;;;2.24;71.05
9538;BME280;4807;48.024;11.726;2022-12-29T01:09:49;94820.25;;;2.22;70.63
9538;BME280;4807;48.024;11.726;2022-12-29T01:13:15;94826.09;;;2.34;70.80
9538;BME280;4807;48.024;11.726;2022-12-29T01:16:24;94826.81;;;2.18;70.97
9538;BME280;4807;48.024;11.726;2022-12-29T01:19:33;94815.75;;;2.32;70.89
9538;BME280;4807;48.024;11.726;2022-12-29T01:22:42;94823.03;;;2.20;71.58
9538;BME280;4807;48.024;11.726;2022-12-29T01:25:50;94827.03;;;2.07;72.31
9538;BME280;4807;48.024;11.726;2022-12-29T01:28:59;94825.78;;;2.11;71.49
9538;BME280;4807;48.024;11.726;2022-12-29T01:32:08;94836.16;;;1.95;72.59
9538;BME280;4807;48.024;11.726;2022-12-29T01:35:19;94837.84;;;2.04;71.63
9538;BME280;4807;48.024;11.726;2022-12-29T01:38:28;94834.56;;;2.02;72.01
9538;BME280;4807;48.024;11.726;2022-12-29T01:41:36;94840.41;;;1.96;72.06
9538;BME280;4807;48.024;11.726;2022-12-29T01:44:52;94828.47;;;2.01;71.05
9538;BME280;4807;48.024;11.726;2022-12-29T01:48:03;94832.38;;;1.97;72.39
9538;BME280;4807;48.024;11.726;2022-12-29T01:51:16;94828.41;;;2.11;71.28
9538;BME280;4807;48.024;11.726;2022-12-29T01:54:29;94821.69;;;2.16;70.76
9538;BME280;4807;48.024;11.726;2022-12-29T01:57:44;94831.38;;;2.16;71.44
9538;BME280;4807;48.024;11.726;2022-12-29T02:00:54;94828.69;;;2.08;71.40
9538;BME280;4807;48.024;11.726;2022-12-29T02:04:04;94820.59;;;2.19;70.96
9538;BME280;4807;48.024;11.726;2022-12-29T02:07:17;94823.22;;;2.19;71.55
9538;BME280;4807;48.024;11.726;2022-12-29T02:10:30;94818.19;;;2.08;71.78
9538;BME280;4807;48.024;11.726;2022-12-29T02:13:39;94814.06;;;2.05;71.69
9538;BME280;4807;48.024;11.726;2022-12-29T02:17:03;94816.19;;;2.02;71.44
9538;BME280;4807;48.024;11.726;2022-12-29T02:21:03;94809.13;;;2.02;71.83
9538;BME280;4807;48.024;11.726;2022-12-29T02:25:00;94811.75;;;2.02;71.28
9538;BME280;4807;48.024;11.726;2022-12-29T02:28:46;94811.06;;;2.00;71.19
9538;BME280;4807;48.024;11.726;2022-12-29T02:32:07;94809.97;;;2.03;70.66
9538;BME280;4807;48.024;11.726;2022-12-29T02:35:29;94805.13;;;2.16;69.99
9538;BME280;4807;48.024;11.726;2022-12-29T02:38:56;94806.50;;;2.28;69.51
9538;BME280;4807;48.024;11.726;2022-12-29T02:42:20;94803.78;;;2.38;68.63
9538;BME280;4807;48.024;11.726;2022-12-29T02:49:52;94811.41;;;2.75;67.32
9538;BME280;4807;48.024;11.726;2022-12-29T02:53:08;94809.50;;;2.93;67.17
9538;BME280;4807;48.024;11.726;2022-12-29T02:56:18;94816.47;;;3.10;65.73
9538;BME280;4807;48.024;11.726;2022-12-29T02:59:26;94812.56;;;3.14;64.84
9538;BME280;4807;48.024;11.726;2022-12-29T03:03:08;94807.00;;;3.25;65.05
9538;BME280;4807;48.024;11.726;2022-12-29T03:06:35;94803.34;;;3.18;64.61
9538;BME280;4807;48.024;11.726;2022-12-29T03:10:00;94798.94;;;3.27;65.00
9538;BME280;4807;48.024;11.726;2022-12-29T03:13:22;94791.56;;;3.30;64.67
9538;BME280;4807;48.024;11.726;2022-12-29T03:16:53;94803.56;;;3.33;64.37
9538;BME280;4807;48.024;11.726;2022-12-29T03:20:10;94805.72;;;3.37;64.60
9538;BME280;4807;48.024;11.726;2022-12-29T03:23:24;94802.78;;;3.40;63.21
9538;BME280;4807;48.024;11.726;2022-12-29T03:26:37;94788.28;;;3.36;63.66
9538;BME280;4807;48.024;11.726;2022-12-29T03:29:48;94794.22;;;3.47;63.68
9538;BME280;4807;48.024;11.726;2022-12-29T03:33:05;94782.06;;;3.54;63.85
9538;BME280;4807;48.024;11.726;2022-12-29T03:36:27;94776.66;;;3.55;63.99
9538;BME280;4807;48.024;11.726;2022-12-29T03:39:38;94783.03;;;3.44;64.07
9538;BME280;4807;48.024;11.726;2022-12-29T03:42:47;94774.34;;;3.52;64.45
9538;BME280;4807;48.024;11.726;2022-12-29T03:45:56;94766.13;;;3.63;64.52
9538;BME280;4807;48.024;11.726;2022-12-29T03:49:04;94770.56;;;3.63;64.13
9538;BME280;4807;48.024;11.726;2022-12-29T03:52:12;94768.63;;;3.81;62.32
9538;BME280;4807;48.024;11.726;2022-12-29T03:55:25;94772.38;;;3.70;63.28
9538;BME280;4807;48.024;11.726;2022-12-29T03:58:33;94756.44;;;3.80;63.42
9538;BME280;4807;48.024;11.726;2022-12-29T04:01:58;94765.31;;;4.11;61.65
9538;BME280;4807;48.024;11.726;2022-12-29T04:05:07;94760.72;;;4.05;61.35
9538;BME280;4807;48.024;11.726;2022-12-29T04:08:17;94768.44;;;4.07;62.08
9538;BME280;4807;48.024;11.726;2022-12-29T04:11:26;94766.28;;;4.18;61.62
9538;BME280;4807;48.024;11.726;2022-12-29T04:14:42;94762.66;;;4.36;61.22
9538;BME280;4807;48.024;11.726;2022-12-29T04:17:51;94759.34;;;4.34;60.99
9538;BME280;4807;48.024;11.726;2022-12-29T04:20:59;94770.22;;;4.31;60.74
9538;BME280;4807;48.024;11.726;2022-12-29T04:24:08;94770.88;;;4.41;60.66
9538;BME280;4807;48.024;11.726;2022-12-29T04:27:24;94760.69;;;4.38;61.08
9538;BME280;4807;48.024;11.726;2022-12-29T04:30:55;94761.97;;;4.42;61.08
9538;BME280;4807;48.024;11.726;2022-12-29T04:34:07;94768.88;;;4.51;60.78
9538;BME280;4807;48.024;11.726;2022-12-29T04:37:17;94767.88;;;4.52;60.89
9538;BME280;4807;48.024;11.726;2022-12-29T04:40:26;94753.53;;;4.54;60.33
9538;BME280;4807;48.024;11.726;2022-12-29T04:43:36;94758.31;;;4.59;60.63
9538;BME280;4807;48.024;11.726;2022-12-29T04:47:13;94755.66;;;4.67;61.17
9538;BME280;4807;48.024;11.726;2022-12-29T04:50:59;94752.16;;;4.75;61.23
9538;BME280;4807;48.024;11.726;2022-12-29T04:54:14;94756.09;;;4.79;61.36
9538;BME280;4807;48.024;11.726;2022-12-29T04:57:27;94752.00;;;4.76;61.34
9538;BME280;4807;48.024;11.726;2022-12-29T05:00:39;94750.03;;;4.70;61.81
9538;BME280;4807;48.024;11.726;2022-12-29T05:03:50;94750.50;;;4.74;61.69
9538;BME280;4807;48.024;11.726;2022-12-29T05:06:59;94741.63;;;4.75;61.62
9538;BME280;4807;48.024;11.726;2022-12-29T05:10:10;94743.59;;;4.73;62.72
9538;BME280;4807;48.024;11.726;2022-12-29T05:13:19;94742.31;;;4.69;62.57
9538;BME280;4807;48.024;11.726;2022-12-29T05:16:30;94740.78;;;4.74;61.91
9538;BME280;4807;48.024;11.726;2022-12-29T05:19:39;94741.06;;;4.87;61.32
9538;BME280;4807;48.024;11.726;2022-12-29T05:22:47;94748.50;;;4.84;61.35
9538;BME280;4807;48.024;11.726;2022-12-29T05:25:56;94744.63;;;4.55;62.40
9538;BME280;4807;48.024;11.726;2022-12-29T05:29:26;94748.69;;;4.74;63.00
9538;BME280;4807;48.024;11.726;2022-12-29T05:32:36;94762.22;;;4.71;62.74
9538;BME280;4807;48.024;11.726;2022-12-29T05:35:45;94753.66;;;4.69;63.70
9538;BME280;4807;48.024;11.726;2022-12-29T05:38:53;94750.03;;;4.70;63.32
9538;BME280;4807;48.024;11.726;2022-12-29T05:42:03;94747.72;;;4.75;63.26
9538;BME280;4807;48.024;11.726;2022-12-29T05:45:29;94741.06;;;4.87;62.30
9538;BME280;4807;48.024;11.726;2022-12-29T05:48:58;94747.03;;;4.81;62.43
9538;BME280;4807;48.024;11.726;2022-12-29T05:52:36;94749.16;;;4.86;62.37
9538;BME280;4807;48.024;11.726;2022-12-29T05:55:47;94742.72;;;4.80;62.52
9538;BME280;4807;48.024;11.726;2022-12-29T05:58:56;94746.34;;;4.87;63.24
9538;BME280;4807;48.024;11.726;2022-12-29T06:02:05;94746.56;;;4.78;64.00
9538;BME280;4807;48.024;11.726;2022-12-29T06:05:16;94740.94;;;4.81;62.88
9538;BME280;4807;48.024;11.726;2022-12-29T06:08:24;94737.28;;;4.82;62.27
9538;BME280;4807;48.024;11.726;2022-12-29T06:11:33;94738.81;;;4.76;63.28
9538;BME280;4807;48.024;11.726;2022-12-29T06:14:42;94747.75;;;4.59;62.93
9538;BME280;4807;48.024;11.726;2022-12-29T06:17:51;94743.50;;;4.50;63.66
9538;BME280;4807;48.024;11.726;2022-12-29T06:21:01;94744.81;;;4.62;63.77
9538;BME280;4807;48.024;11.726;2022-12-29T06:24:10;94736.53;;;4.65;63.39
9538;BME280;4807;48.024;11.726;2022-12-29T06:27:20;94734.72;;;4.66;63.47
9538;BME280;4807;48.024;11.726;2022-12-29T06:30:30;94735.63;;;4.42;63.83
9538;BME280;4807;48.024;11.726;2022-12-29T06:33:40;94739.06;;;4.50;64.58
9538;BME280;4807;48.024;11.726;2022-12-29T06:36:57;94737.38;;;4.57;64.22
9538;BME280;4807;48.024;11.726;2022-12-29T06:40:07;94741.66;;;4.58;63.99
9538;BME280;4807;48.024;11.726;2022-12-29T06:43:37;94745.78;;;4.61;64.17
9538;BME280;4807;48.024;11.726;2022-12-29T06:47:16;94744.81;;;4.54;64.70
9538;BME280;4807;48.024;11.726;2022-12-29T06:50:26;94749.91;;;4.55;64.66
9538;BME280;4807;48.024;11.726;2022-12-29T06:53:36;94758.31;;;4.51;64.98
9538;BME280;4807;48.024;11.726;2022-12-29T06:56:44;94751.56;;;4.48;64.32
9538;BME280;4807;48.024;11.726;2022-12-29T06:59:52;94754.72;;;4.44;65.04
9538;BME280;4807;48.024;11.726;2022-12-29T07:03:02;94771.22;;;4.38;63.87
9538;BME280;4807;48.024;11.726;2022-12-29T07:06:13;94763.44;;;4.52;64.30
9538;BME280;4807;48.024;11.726;2022-12-29T07:09:24;94761.94;;;4.50;63.81
9538;BME280;4807;48.024;11.726;2022-12-29T07:12:32;94765.56;;;4.57;63.55
9538;BME280;4807;48.024;11.726;2022-12-29T07:15:43;94786.91;;;4.94;60.74
9538;BME280;4807;48.024;11.726;2022-12-29T07:18:51;94782.09;;;4.90;62.01
9538;BME280;4807;48.024;11.726;2022-12-29T07:22:00;94781.41;;;4.96;61.19
9538;BME280;4807;48.024;11.726;2022-12-29T07:25:10;94789.81;;;5.08;60.34
9538;BME280;4807;48.024;11.726;2022-12-29T07:28:18;94782.59;;;4.93;60.56
9538;BME280;4807;48.024;11.726;2022-12-29T07:31:26;94778.41;;;5.07;60.55
9538;BME280;4807;48.024;11.726;2022-12-29T07:34:35;94788.16;;;5.07;60.80
9538;BME280;4807;48.024;11.726;2022-12-29T07:37:43;94796.22;;;5.05;61.58
9538;BME280;4807;48.024;11.726;2022-12-29T07:40:57;94798.72;;;5.07;60.69
9538;BME280;4807;48.024;11.726;2022-12-29T07:44:05;94799.19;;;5.10;60.56
9538;BME280;4807;48.024;11.726;2022-12-29T07:47:35;94803.47;;;5.11;60.20
9538;BME280;4807;48.024;11.726;2022-12-29T07:50:43;94800.34;;;5.08;60.97
9538;BME280;4807;48.024;11.726;2022-12-29T07:53:52;94814.69;;;5.05;60.84
9538;BME280;4807;48.024;11.726;2022-12-29T07:57:01;94815.91;;;4.94;60.86
9538;BME280;4807;48.024;11.726;2022-12-29T08:00:11;94813.94;;;4.88;61.09
9538;BME280;4807;48.024;11.726;2022-12-29T08:03:20;94818.25;;;4.81;60.35
9538;BME280;4807;48.024;11.726;2022-12-29T08:06:28;94803.72;;;4.93;60.64
9538;BME280;4807;48.024;11.726;2022-12-29T08:09:37;94813.78;;;4.82;60.82
9538;BME280;4807;48.024;11.726;2022-12-29T08:12:48;94813.28;;;4.94;60.78
9538;BME280;4807;48.024;11.726;2022-12-29T08:15:58;94814.63;;;5.21;60.78
9538;BME280;4807;48.024;11.726;2022-12-29T08:19:06;94810.28;;;5.36;59.15
9538;BME280;4807;48.024;11.726;2022-12-29T08:22:15;94814.84;;;5.51;59.04
9538;BME280;4807;48.024;11.726;2022-12-29T08:25:24;94813.28;;;5.64;58.31
9538;BME280;4807;48.024;11.726;2022-12-29T08:28:34;94814.72;;;5.75;58.08
9538;BME280;4807;48.024;11.726;2022-12-29T08:31:42;94821.44;;;5.78;57.45
9538;BME280;4807;48.024;11.726;2022-12-29T08:34:50;94818.13;;;5.84;57.20
9538;BME280;4807;48.024;11.726;2022-12-29T08:37:58;94818.84;;;6.00;56.30
9538;BME280;4807;48.024;11.726;2022-12-29T08:41:07;94817.69;;;6.03;55.59
9538;BME280;4807;48.024;11.726;2022-12-29T08:44:17;94821.09;;;6.11;55.77
9538;BME280;4807;48.024;11.726;2022-12-29T08:47:25;94819.22;;;6.20;56.10
9538;BME280;4807;48.024;11.726;2022-12-29T08:50:34;94821.63;;;6.07;55.30
9538;BME280;4807;48.024;11.726;2022-12-29T08:53:42;94825.91;;;6.08;55.77
9538;BME280;4807;48.024;11.726;2022-12-29T08:56:50;94814.84;;;6.27;55.90
9538;BME280;4807;48.024;11.726;2022-12-29T09:00:08;94820.19;;;6.42;54.44
9538;BME280;4807;48.024;11.726;2022-12-29T09:03:17;94822.66;;;6.43;53.64
9538;BME280;4807;48.024;11.726;2022-12-29T09:06:45;94821.47;;;6.46;54.62
9538;BME280;4807;48.024;11.726;2022-12-29T09:09:54;94832.56;;;6.64;54.32
9538;BME280;4807;48.024;11.726;2022-12-29T09:13:02;94820.69;;;6.60;54.78
9538;BME280;4807;48.024;11.726;2022-12-29T09:16:14;94825.63;;;6.78;54.49
9538;BME280;4807;48.024;11.726;2022-12-29T09:19:23;94822.25;;;6.84;53.24
9538;BME280;4807;48.024;11.726;2022-12-29T09:22:31;94823.44;;;6.67;54.40
9538;BME280;4807;48.024;11.726;2022-12-29T09:25:39;94816.53;;;6.80;54.29
9538;BME280;4807;48.024;11.726;2022-12-29T09:28:50;94815.72;;;6.80;53.76
9538;BME280;4807;48.024;11.726;2022-12-29T09:32:00;94821.34;;;7.06;52.83
9538;BME280;4807;48.024;11.726;2022-12-29T09:35:14;94823.56;;;7.17;53.84
9538;BME280;4807;48.024;11.726;2022-12-29T09:38:25;94827.94;;;7.40;52.92
9538;BME280;4807;48.024;11.726;2022-12-29T09:41:41;94817.19;;;7.62;51.95
9538;BME280;4807;48.024;11.726;2022-12-29T09:45:10;94823.44;;;7.70;51.83
9538;BME280;4807;48.024;11.726;2022-12-29T09:48:28;94826.56;;;7.94;50.88
9538;BME280;4807;48.024;11.726;2022-12-29T09:51:42;94822.09;;;8.37;50.65
9538;BME280;4807;48.024;11.726;2022-12-29T09:54:55;94829.72;;;8.68;50.44
9538;BME280;4807;48.024;11.726;2022-12-29T09:58:17;94809.94;;;8.99;49.09
9538;BME280;4807;48.024;11.726;2022-12-29T10:01:35;94810.25;;;9.58;47.45
9538;BME280;4807;48.024;11.726;2022-12-29T10:04:46;94805.31;;;10.03;47.17
9538;BME280;4807;48.024;11.726;2022-12-29T10:08:06;94785.94;;;10.28;45.68
9538;BME280;4807;48.024;11.726;2022-12-29T10:11:50;94779.59;;;10.62;45.34
9538;BME280;4807;48.024;11.726;2022-12-29T10:15:11;94769.97;;;10.55;45.24
9538;BME280;4807;48.024;11.726;2022-12-29T10:19:02;94773.47;;;10.36;44.88
9538;BME280;4807;48.024;11.726;2022-12-29T10:22:31;94778.16;;;10.40;44.79
9538;BME280;4807;48.024;11.726;2022-12-29T10:25:43;94772.63;;;10.55;42.80
9538;BME280;4807;48.024;11.726;2022-12-29T10:28:56;94767.31;;;10.68;43.89
9538;BME280;4807;48.024;11.726;2022-12-29T10:32:16;94770.00;;;10.61;43.38
9538;BME280;4807;48.024;11.726;2022-12-29T10:35:32;94774.09;;;10.57;42.96
9538;BME280;4807;48.024;11.726;2022-12-29T10:39:03;94763.84;;;10.61;44.17
9538;BME280;4807;48.024;11.726;2022-12-29T10:42:19;94761.78;;;10.56;43.69
9538;BME280;4807;48.024;11.726;2022-12-29T10:45:31;94763.63;;;10.43;43.16
9538;BME280;4807;48.024;11.726;2022-12-29T10:48:42;94774.72;;;10.53;43.06
9538;BME280;4807;48.024;11.726;2022-12-29T10:51:57;94777.97;;;10.55;42.62
9538;BME280;4807;48.024;11.726;2022-12-29T10:55:15;94769.19;;;10.61;42.89
9538;BME280;4807;48.024;11.726;2022-12-29T10:58:27;94766.91;;;10.71;43.23
9538;BME280;4807;48.024;11.726;2022-12-29T11:01:48;94755.00;;;10.87;42.76
9538;BME280;4807;48.024;11.726;2022-12-29T11:05:03;94750.28;;;10.95;43.42
9538;BME280;4807;48.024;11.726;2022-12-29T11:08:20;94738.16;;;11.06;41.43
9538;BME280;4807;48.024;11.726;2022-12-29T11:11:36;94735.69;;;11.11;42.51
9538;BME280;4807;48.024;11.726;2022-12-29T11:14:44;94728.91;;;11.22;42.41
9538;BME280;4807;48.024;11.726;2022-12-29T11:17:56;94718.84;;;11.24;40.77
9538;BME280;4807;48.024;11.726;2022-12-29T11:21:25;94730.06;;;11.39;40.57
9538;BME280;4807;48.024;11.726;2022-12-29T11:24:45;94732.09;;;11.50;40.32
9538;BME280;4807;48.024;11.726;2022-12-29T11:28:01;94718.59;;;11.38;37.88
9538;BME280;4807;48.024;11.726;2022-12-29T11:31:17;94723.09;;;11.38;39.30
9538;BME280;4807;48.024;11.726;2022-12-29T11:34:31;94716.81;;;11.26;38.18
9538;BME280;4807;48.024;11.726;2022-12-29T11:37:41;94716.94;;;11.37;39.57
9538;BME280;4807;48.024;11.726;2022-12-29T11:40:49;94723.97;;;11.32;40.28
9538;BME280;4807;48.024;11.726;2022-12-29T11:44:04;94709.13;;;11.49;41.64
9538;BME280;4807;48.024;11.726;2022-12-29T11:47:26;94713.53;;;11.68;38.67
9538;BME280;4807;48.024;11.726;2022-12-29T11:50:40;94702.84;;;11.81;40.18
9538;BME280;4807;48.024;11.726;2022-12-29T11:53:53;94702.56;;;11.90;38.86
9538;BME280;4807;48.024;11.726;2022-12-29T11:57:13;94702.38;;;11.84;40.25
9538;BME280;4807;48.024;11.726;2022-12-29T12:00:25;94707.69;;;11.91;38.28
9538;BME280;4807;48.024;11.726;2022-12-29T12:03:42;94704.88;;;11.79;37.97
9538;BME280;4807;48.024;11.726;2022-12-29T12:07:04;94696.41;;;11.51;37.46
9538;BME280;4807;48.024;11.726;2022-12-29T12:10:27;94690.72;;;11.41;38.14
9538;BME280;4807;48.024;11.726;2022-12-29T12:13:43;94701.09;;;11.56;38.19
9538;BME280;4807;48.024;11.726;2022-12-29T12:17:04;94690.53;;;11.29;38.19
9538;BME280;4807;48.024;11.726;2022-12-29T12:20:18;94692.75;;;11.39;37.72
9538;BME280;4807;48.024;11.726;2022-12-29T12:23:44;94691.72;;;11.40;37.29
9538;BME280;4807;48.024;11.726;2022-12-29T12:27:01;94685.38;;;11.41;38.87
9538;BME280;4807;48.024;11.726;2022-12-29T12:30:15;94684.53;;;11.47;38.22
9538;BME280;4807;48.024;11.726;2022-12-29T12:33:31;94676.69;;;11.52;37.50
9538;BME280;4807;48.024;11.726;2022-12-29T12:36:59;94668.75;;;12.40;36.91
9538;BME280;4807;48.024;11.726;2022-12-29T12:44:10;94674.06;;;14.16;33.29
9538;BME280;4807;48.024;11.726;2022-12-29T12:47:37;94672.47;;;14.38;32.41
9538;BME280;4807;48.024;11.726;2022-12-29T12:51:07;94669.25;;;13.46;33.49
9538;BME280;4807;48.024;11.726;2022-12-29T12:54:43;94661.47;;;12.90;34.37
9538;BME280;4807;48.024;11.726;2022-12-29T12:58:03;94663.81;;;12.61;36.01
9538;BME280;4807;48.024;11.726;2022-12-29T13:01:37;94661.72;;;12.45;34.80
9538;BME280;4807;48.024;11.726;2022-12-29T13:05:21;94662.34;;;12.41;35.29
9538;BME280;4807;48.024;11.726;2022-12-29T13:12:34;94666.63;;;12.23;36.20
9538;BME280;4807;48.024;11.726;2022-12-29T13:15:54;94667.88;;;12.21;36.29
9538;BME280;4807;48.024;11.726;2022-12-29T13:19:13;94659.41;;;11.99;35.82
9538;BME280;4807;48.024;11.726;2022-12-29T13:22:28;94657.31;;;12.08;35.83
9538;BME280;4807;48.024;11.726;2022-12-29T13:25:50;94654.72;;;11.95;36.98
9538;BME280;4807;48.024;11.726;2022-12-29T13:29:08;94652.03;;;11.95;36.52
9538;BME280;4807;48.024;11.726;2022-12-29T13:32:28;94655.47;;;12.02;37.38
9538;BME280;4807;48.024;11.726;2022-12-29T13:35:55;94646.56;;;11.90;35.97
9538;BME280;4807;48.024;11.726;2022-12-29T13:39:10;94649.91;;;11.78;37.94
9538;BME280;4807;48.024;11.726;2022-12-29T13:42:29;94654.81;;;11.81;37.19
9538;BME280;4807;48.024;11.726;2022-12-29T13:45:40;94647.91;;;11.67;38.35
9538;BME280;4807;48.024;11.726;2022-12-29T13:48:55;94648.97;;;11.60;38.85
9538;BME280;4807;48.024;11.726;2022-12-29T13:52:15;94650.59;;;11.61;39.24
9538;BME280;4807;48.024;11.726;2022-12-29T13:55:32;94660.28;;;11.55;39.13
9538;BME280;4807;48.024;11.726;2022-12-29T13:58:53;94668.34;;;11.42;39.43
9538;BME280;4807;48.024;11.726;2022-12-29T14:02:16;94667.94;;;11.38;38.78
9538;BME280;4807;48.024;11.726;2022-12-29T14:05:32;94670.66;;;11.32;39.08
9538;BME280;4807;48.024;11.726;2022-12-29T14:08:40;94670.47;;;11.20;40.38
9538;BME280;4807;48.024;11.726;2022-12-29T14:11:49;94665.19;;;11.14;39.89
9538;BME280;4807;48.024;11.726;2022-12-29T14:15:23;94667.47;;;11.03;39.93
9538;BME280;4807;48.024;11.726;2022-12-29T14:18:41;94671.59;;;10.99;40.68
9538;BME280;4807;48.024;11.726;2022-12-29T14:21:53;94670.00;;;10.85;39.94
9538;BME280;4807;48.024;11.726;2022-12-29T14:25:02;94667.13;;;10.80;40.39
9538;BME280;4807;48.024;11.726;2022-12-29T14:28:22;94660.63;;;10.63;40.43
9538;BME280;4807;48.024;11.726;2022-12-29T14:31:36;94666.38;;;10.60;40.20
9538;BME280;4807;48.024;11.726;2022-12-29T14:34:48;94667.34;;;10.72;39.76
9538;BME280;4807;48.024;11.726;2022-12-29T14:38:13;94663.28;;;10.56;40.66
9538;BME280;4807;48.024;11.726;2022-12-29T14:41:30;94664.34;;;10.49;41.89
9538;BME280;4807;48.024;11.726;2022-12-29T14:44:49;94662.28;;;10.51;40.76
9538;BME280;4807;48.024;11.726;2022-12-29T14:48:00;94669.06;;;10.40;42.63
9538;BME280;4807;48.024;11.726;2022-12-29T14:51:26;94670.88;;;10.40;42.18
9538;BME280;4807;48.024;11.726;2022-12-29T14:54:47;94674.59;;;10.19;42.95
9538;BME280;4807;48.024;11.726;2022-12-29T14:58:01;94680.28;;;10.03;43.08
9538;BME280;4807;48.024;11.726;2022-12-29T15:01:24;94675.97;;;9.82;45.82
9538;BME280;4807;48.024;11.726;2022-12-29T15:04:36;94673.28;;;9.69;46.64
9538;BME280;4807;48.024;11.726;2022-12-29T15:07:46;94678.56;;;9.49;46.45
9538;BME280;4807;48.024;11.726;2022-12-29T15:11:00;94674.41;;;9.33;46.83
9538;BME280;4807;48.024;11.726;2022-12-29T15:14:50;94677.47;;;9.24;46.17
9538;BME280;4807;48.024;11.726;2022-12-29T15:18:15;94690.81;;;9.37;45.85
9538;BME280;4807;48.024;11.726;2022-12-29T15:21:32;94687.63;;;9.07;46.27
9538;BME280;4807;48.024;11.726;2022-12-29T15:24:42;94701.63;;;8.88;47.67
9538;BME280;4807;48.024;11.726;2022-12-29T15:27:52;94707.09;;;8.79;47.76
9538;BME280;4807;48.024;11.726;2022-12-29T15:31:05;94694.97;;;8.70;48.78
9538;BME280;4807;48.024;11.726;2022-12-29T15:34:14;94689.88;;;8.69;48.71
9538;BME280;4807;48.024;11.726;2022-12-29T15:37:33;94691.09;;;8.38;49.99
9538;BME280;4807;48.024;11.726;2022-12-29T15:40:44;94703.31;;;8.33;51.52
9538;BME280;4807;48.024;11.726;2022-12-29T15:44:09;94707.22;;;8.16;51.24
9538;BME280;4807;48.024;11.726;2022-12-29T15:47:22;94708.13;;;8.01;52.38
9538;BME280;4807;48.024;11.726;2022-12-29T15:50:34;94708.66;;;7.90;54.28
9538;BME280;4807;48.024;11.726;2022-12-29T15:53:47;94702.88;;;7.87;54.31
9538;BME280;4807;48.024;11.726;2022-12-29T15:56:56;94713.00;;;7.77;54.57
9538;BME280;4807;48.024;11.726;2022-12-29T16:00:23;94717.44;;;7.55;55.41
9538;BME280;4807;48.024;11.726;2022-12-29T16:03:36;94703.72;;;7.66;54.29
9538;BME280;4807;48.024;11.726;2022-12-29T16:06:56;94711.38;;;7.76;54.16
9538;BME280;4807;48.024;11.726;2022-12-29T16:10:26;94708.66;;;7.90;52.24
9538;BME280;4807;48.024;11.726;2022-12-29T16:13:40;94712.91;;;8.13;51.73
9538;BME280;4807;48.024;11.726;2022-12-29T16:16:50;94709.97;;;7.80;53.19
9538;BME280;4807;48.024;11.726;2022-12-29T16:20:04;94705.91;;;7.62;54.07
9538;BME280;4807;48.024;11.726;2022-12-29T16:23:22;94717.50;;;7.76;53.35
9538;BME280;4807;48.024;11.726;2022-12-29T16:26:34;94716.41;;;7.92;52.31
9538;BME280;4807;48.024;11.726;2022-12-29T16:29:43;94715.53;;;7.85;53.57
9538;BME280;4807;48.024;11.726;2022-12-29T16:32:55;94717.59;;;7.89;53.65
9538;BME280;4807;48.024;11.726;2022-12-29T16:36:24;94725.50;;;7.83;53.08
9538;BME280;4807;48.024;11.726;2022-12-29T16:39:35;94720.84;;;7.85;55.06
9538;BME280;4807;48.024;11.726;2022-12-29T16:42:49;94725.81;;;7.94;54.13
9538;BME280;4807;48.024;11.726;2022-12-29T16:46:25;94724.59;;;7.97;55.13
9538;BME280;4807;48.024;11.726;2022-12-29T16:49:41;94731.22;;;8.08;55.66
9538;BME280;4807;48.024;11.726;2022-12-29T16:52:53;94721.81;;;8.05;54.57
9538;BME280;4807;48.024;11.726;2022-12-29T16:56:09;94724.09;;;8.08;54.16
9538;BME280;4807;48.024;11.726;2022-12-29T16:59:32;94722.41;;;8.00;54.21
9538;BME280;4807;48.024;11.726;2022-12-29T17:02:42;94720.69;;;8.14;53.79
9538;BME280;4807;48.024;11.726;2022-12-29T17:05:52;94727.84;;;7.92;55.41
9538;BME280;4807;48.024;11.726;2022-12-29T17:09:17;94717.22;;;7.71;56.27
9538;BME280;4807;48.024;11.726;2022-12-29T17:12:29;94720.75;;;7.57;56.82
9538;BME280;4807;48.024;11.726;2022-12-29T17:15:43;94726.59;;;7.16;57.50
9538;BME280;4807;48.024;11.726;2022-12-29T17:18:52;94714.25;;;7.23;57.71
9538;BME280;4807;48.024;11.726;2022-12-29T17:22:02;94719.94;;;7.20;56.76
9538;BME280;4807;48.024;11.726;2022-12-29T17:25:13;94733.53;;;7.17;57.35
9538;BME280;4807;48.024;11.726;2022-12-29T17:28:26;94727.47;;;6.87;58.49
9538;BME280;4807;48.024;11.726;2022-12-29T17:31:39;94733.03;;;6.78;58.51
9538;BME280;4807;48.024;11.726;2022-12-29T17:34:48;94728.09;;;6.75;58.96
9538;BME280;4807;48.024;11.726;2022-12-29T17:37:56;94730.66;;;6.54;58.65
9538;BME280;4807;48.024;11.726;2022-12-29T17:41:13;94735.94;;;6.54;59.72
9538;BME280;4807;48.024;11.726;2022-12-29T17:44:27;94735.59;;;6.57;59.19
9538;BME280;4807;48.024;11.726;2022-12-29T17:47:38;94738.59;;;6.54;59.15
9538;BME280;4807;48.024;11.726;2022-12-29T17:50:49;94744.97;;;6.44;59.57
9538;BME280;4807;48.024;11.726;2022-12-29T17:53:59;94739.03;;;6.42;59.00